Time;durP1;ratioP1;P1;durP2;ratioP2;P2;SDS_P1;SDS_P2;PMS_P1;PMS_P2;Temp;Humidity;BMP_temperature;BMP_pressure;BME280_temperature;BME280_humidity;BME280_pressure;Samples;Min_cycle;Max_cycle;Signal;HPM_P1;HPM_P2
2023/12/06 00:00:16;;;;;;;2.95;2.08;;;;;;;3.47;100.00;99232.59;4934969;28;20376;-84
2023/12/06 00:02:43;;;;;;;3.03;2.10;;;;;;;3.46;100.00;99244.00;4950376;28;20058;-84
2023/12/06 00:05:10;;;;;;;1.67;1.48;;;;;;;3.46;100.00;99238.75;4947398;28;20054;-85
2023/12/06 00:07:38;;;;;;;1.88;1.20;;;;;;;3.47;100.00;99230.78;4946372;28;20406;-84
2023/12/06 00:10:05;;;;;;;2.30;1.20;;;;;;;3.49;100.00;99235.94;4931796;28;20043;-84
2023/12/06 00:12:32;;;;;;;2.45;1.23;;;;;;;3.50;100.00;99226.28;4945585;28;20043;-85
2023/12/06 00:14:59;;;;;;;1.75;1.17;;;;;;;3.53;100.00;99229.53;4921236;28;20047;-85
2023/12/06 00:17:26;;;;;;;1.67;1.35;;;;;;;3.50;100.00;99229.75;4921598;28;20047;-85
2023/12/06 00:19:52;;;;;;;1.70;1.40;;;;;;;3.51;100.00;99234.06;4935658;28;20043;-84
2023/12/06 00:22:19;;;;;;;3.08;1.40;;;;;;;3.54;100.00;99230.38;4930189;28;20042;-84
2023/12/06 00:24:46;;;;;;;3.38;1.40;;;;;;;3.54;100.00;99231.22;4932123;28;20045;-85
2023/12/06 00:27:13;;;;;;;1.92;1.40;;;;;;;3.53;100.00;99226.06;4917550;28;20611;-84
2023/12/06 00:29:39;;;;;;;2.13;1.52;;;;;;;3.52;100.00;99230.47;4918658;28;20042;-85
2023/12/06 00:32:06;;;;;;;2.85;1.63;;;;;;;3.54;100.00;99238.25;4949655;28;20130;-85
2023/12/06 00:34:33;;;;;;;1.90;1.38;;;;;;;3.56;100.00;99231.09;4930009;28;20125;-84
2023/12/06 00:37:00;;;;;;;1.75;1.60;;;;;;;3.55;100.00;99237.31;4936672;28;20498;-84
2023/12/06 00:39:26;;;;;;;1.27;1.17;;;;;;;3.57;100.00;99238.03;4948706;28;20039;-85
2023/12/06 00:41:53;;;;;;;2.30;2.00;;;;;;;3.58;100.00;99234.47;4956618;28;20042;-84
2023/12/06 00:44:20;;;;;;;2.55;1.70;;;;;;;3.58;100.00;99239.72;4956289;28;20082;-85
2023/12/06 00:46:47;;;;;;;1.73;1.60;;;;;;;3.57;100.00;99240.66;4936050;28;20055;-85
2023/12/06 00:49:14;;;;;;;3.25;2.20;;;;;;;3.58;100.00;99237.91;4931072;28;20050;-85
2023/12/06 00:51:41;;;;;;;4.78;2.33;;;;;;;3.60;100.00;99240.44;4922273;28;20141;-84
2023/12/06 00:54:08;;;;;;;3.17;2.35;;;;;;;3.60;100.00;99240.44;4938357;28;20043;-85
2023/12/06 00:56:34;;;;;;;2.78;2.35;;;;;;;3.60;100.00;99241.28;4934447;28;20058;-85
2023/12/06 00:59:01;;;;;;;3.38;2.10;;;;;;;3.61;100.00;99242.13;4935043;28;20046;-85
2023/12/06 01:01:28;;;;;;;3.22;1.73;;;;;;;3.60;100.00;99241.28;4938486;28;20586;-85
2023/12/06 01:03:55;;;;;;;4.78;2.50;;;;;;;3.62;100.00;99252.53;4938257;28;20047;-85
2023/12/06 01:06:22;;;;;;;2.53;2.05;;;;;;;3.64;100.00;99257.69;4933724;28;20041;-84
2023/12/06 01:08:49;;;;;;;2.65;1.75;;;;;;;3.64;100.00;99253.28;4953936;28;20042;-84
2023/12/06 01:11:15;;;;;;;6.20;3.00;;;;;;;3.62;100.00;99257.78;4911336;28;20410;-84
2023/12/06 01:13:42;;;;;;;3.42;2.40;;;;;;;3.64;100.00;99261.16;4932188;28;20110;-84
2023/12/06 01:16:09;;;;;;;2.97;2.33;;;;;;;3.63;100.00;99261.25;4955609;28;20067;-85
2023/12/06 01:18:36;;;;;;;3.05;2.22;;;;;;;3.65;100.00;99267.22;4939854;28;20086;-85
2023/12/06 01:21:03;;;;;;;4.80;2.03;;;;;;;3.65;100.00;99265.44;4933296;28;20043;-84
2023/12/06 01:23:29;;;;;;;4.60;2.47;;;;;;;3.66;100.00;99264.50;4933609;28;20045;-85
2023/12/06 01:25:56;;;;;;;3.95;2.03;;;;;;;3.67;100.00;99262.72;4951926;28;20492;-85
2023/12/06 01:28:23;;;;;;;2.15;1.58;;;;;;;3.67;100.00;99267.97;4938534;28;20047;-84
2023/12/06 01:30:50;;;;;;;3.55;2.03;;;;;;;3.68;100.00;99270.47;4956376;28;20055;-84
2023/12/06 01:33:17;;;;;;;2.55;2.22;;;;;;;3.70;100.00;99276.47;4944575;28;20043;-83
2023/12/06 01:35:44;;;;;;;2.90;2.45;;;;;;;3.70;100.00;99276.47;4948958;28;20102;-84
2023/12/06 01:38:10;;;;;;;2.30;2.00;;;;;;;3.70;100.00;99276.47;4950026;28;20047;-84
2023/12/06 01:40:38;;;;;;;2.15;1.55;;;;;;;3.70;100.00;99276.47;4962460;28;20060;-84
2023/12/06 01:43:05;;;;;;;2.20;1.95;;;;;;;3.70;100.00;99281.72;4923274;28;20057;-84
2023/12/06 01:45:32;;;;;;;4.93;2.65;;;;;;;3.72;100.00;99278.16;4936276;28;20070;-84
2023/12/06 01:47:59;;;;;;;5.68;2.10;;;;;;;3.71;100.00;99274.66;4916782;28;20545;-84
2023/12/06 01:50:27;;;;;;;3.42;2.30;;;;;;;3.72;100.00;99275.53;4962340;28;20095;-84
2023/12/06 01:52:59;;;;;;;3.55;2.55;;;;;;;3.72;100.00;99281.63;4936483;28;20525;-84
2023/12/06 01:55:26;;;;;;;2.45;2.22;;;;;;;3.73;100.00;99285.91;4917214;28;20130;-85
2023/12/06 01:57:53;;;;;;;2.80;2.13;;;;;;;3.73;100.00;99287.72;4957966;28;20070;-84
2023/12/06 02:00:19;;;;;;;2.30;2.10;;;;;;;3.74;100.00;99284.97;4948736;28;20101;-84
2023/12/06 02:02:46;;;;;;;3.33;2.33;;;;;;;3.74;100.00;99284.97;4935554;28;20051;-85
2023/12/06 02:05:13;;;;;;;4.43;2.20;;;;;;;3.74;100.00;99298.13;4920279;28;20047;-84
2023/12/06 02:07:41;;;;;;;4.10;2.47;;;;;;;3.76;100.00;99298.00;4947599;28;20142;-85
2023/12/06 02:10:09;;;;;;;2.42;1.88;;;;;;;3.77;100.00;99302.31;4933047;28;20043;-84
2023/12/06 02:12:36;;;;;;;5.57;2.08;;;;;;;3.77;100.00;99305.78;4933610;28;20582;-84
2023/12/06 02:15:03;;;;;;;3.38;2.35;;;;;;;3.79;100.00;99314.41;4945393;28;20045;-84
2023/12/06 02:17:32;;;;;;;2.60;1.92;;;;;;;3.79;100.00;99311.78;4963003;28;20043;-84
2023/12/06 02:20:01;;;;;;;3.28;2.00;;;;;;;3.81;100.00;99316.91;4927699;28;20062;-84
2023/12/06 02:22:28;;;;;;;2.50;2.08;;;;;;;3.81;100.00;99319.53;4948680;28;20047;-84
2023/12/06 02:24:57;;;;;;;3.38;2.10;;;;;;;3.82;100.00;99323.84;4932208;28;20045;-84
2023/12/06 02:27:24;;;;;;;2.45;2.00;;;;;;;3.81;100.00;99314.28;4949392;28;20047;-85
2023/12/06 02:29:51;;;;;;;3.35;2.10;;;;;;;3.82;100.00;99318.59;4922411;28;20402;-84
2023/12/06 02:32:18;;;;;;;2.67;2.20;;;;;;;3.83;100.00;99320.25;4914223;28;20463;-84
2023/12/06 02:34:46;;;;;;;2.85;2.05;;;;;;;3.83;100.00;99320.25;4947693;28;20048;-85
2023/12/06 02:37:14;;;;;;;2.88;2.30;;;;;;;3.84;100.00;99321.94;4925656;28;20054;-85
2023/12/06 02:39:42;;;;;;;2.67;1.70;;;;;;;3.84;100.00;99320.16;4937803;28;20046;-84
2023/12/06 02:42:09;;;;;;;5.18;2.45;;;;;;;3.84;100.00;99322.78;4935018;28;20050;-84
2023/12/06 02:44:36;;;;;;;3.83;2.70;;;;;;;3.86;100.00;99312.16;4919013;28;21662;-85
2023/12/06 02:47:03;;;;;;;2.08;1.75;;;;;;;3.86;100.00;99322.66;4919115;28;20039;-84
2023/12/06 02:49:29;;;;;;;2.05;1.70;;;;;;;3.87;100.00;99321.75;4920395;28;20051;-84
2023/12/06 02:51:56;;;;;;;1.85;1.63;;;;;;;3.88;100.00;99318.16;4936541;28;20062;-85
2023/12/06 02:54:23;;;;;;;2.20;1.48;;;;;;;3.87;100.00;99312.06;4931255;28;20521;-84
2023/12/06 02:56:50;;;;;;;1.60;1.50;;;;;;;3.88;100.00;99312.91;4934691;28;20138;-84
2023/12/06 02:59:17;;;;;;;1.92;1.70;;;;;;;3.87;100.00;99312.06;4933496;28;20047;-85
2023/12/06 03:01:50;;;;;;;2.67;1.50;;;;;;;3.88;100.00;99313.75;4947916;28;20059;-84
2023/12/06 03:04:17;;;;;;;2.58;1.67;;;;;;;3.88;100.00;99307.66;4964446;28;20050;-84
2023/12/06 03:06:44;;;;;;;2.17;1.30;;;;;;;3.89;100.00;99306.69;4936871;28;20050;-85
2023/12/06 03:09:10;;;;;;;2.20;1.60;;;;;;;3.89;100.00;99314.56;4948198;28;20043;-84
2023/12/06 03:11:37;;;;;;;2.63;1.95;;;;;;;3.90;100.00;99314.47;4932090;28;20513;-84
2023/12/06 03:14:05;;;;;;;5.82;2.47;;;;;;;3.89;100.00;99307.56;4935508;28;20061;-83
2023/12/06 03:16:33;;;;;;;6.55;3.53;;;;;;;3.90;100.00;99309.22;4930302;28;20126;-84
2023/12/06 03:19:01;;;;;;;3.70;2.53;;;;;;;3.90;100.00;99311.84;4923755;28;20129;-84
2023/12/06 03:21:28;;;;;;;5.35;1.88;;;;;;;3.90;100.00;99311.03;4914645;28;20046;-84
2023/12/06 03:23:55;;;;;;;3.58;1.70;;;;;;;3.91;100.00;99316.16;4936249;28;20097;-84
2023/12/06 03:26:22;;;;;;;5.05;2.10;;;;;;;3.92;100.00;99319.63;4917205;28;20050;-85
2023/12/06 03:28:49;;;;;;;2.97;1.80;;;;;;;3.93;100.00;99310.81;4951901;28;20051;-85
2023/12/06 03:31:16;;;;;;;1.90;1.60;;;;;;;3.92;100.00;99320.47;4938158;28;20046;-85
2023/12/06 03:33:43;;;;;;;4.25;1.77;;;;;;;3.92;100.00;99317.84;4899794;28;20137;-84
2023/12/06 03:36:12;;;;;;;1.88;1.55;;;;;;;3.95;100.00;99321.22;4918203;28;20053;-84
2023/12/06 03:38:40;;;;;;;1.52;1.25;;;;;;;3.94;100.00;99322.97;4931349;28;20053;-84
2023/12/06 03:41:06;;;;;;;1.65;1.40;;;;;;;3.93;100.00;99321.31;4951717;28;20102;-85
2023/12/06 03:43:33;;;;;;;4.45;1.67;;;;;;;3.95;100.00;99319.41;4929522;28;20051;-84
2023/12/06 03:46:00;;;;;;;2.55;1.92;;;;;;;3.95;100.00;99324.69;4933176;28;20047;-84
2023/12/06 03:48:27;;;;;;;3.60;1.70;;;;;;;3.96;100.00;99323.72;4916889;28;20101;-85
2023/12/06 03:50:54;;;;;;;4.18;1.90;;;;;;;3.96;100.00;99325.50;4962484;28;20065;-84
2023/12/06 03:53:20;;;;;;;1.63;1.45;;;;;;;3.98;100.00;99326.25;4938172;28;20386;-85
2023/12/06 03:55:47;;;;;;;1.65;1.23;;;;;;;3.98;100.00;99332.34;4944736;28;20114;-85
2023/12/06 03:58:14;;;;;;;1.33;1.20;;;;;;;3.98;100.00;99329.72;4943583;28;20055;-84
2023/12/06 04:00:41;;;;;;;1.35;1.00;;;;;;;3.98;100.00;99327.09;4947013;28;20794;-84
2023/12/06 04:03:08;;;;;;;1.42;1.33;;;;;;;3.97;100.00;99324.56;4931760;28;20083;-84
2023/12/06 04:05:35;;;;;;;1.58;1.48;;;;;;;3.99;100.00;99325.28;4912402;28;20380;-84
2023/12/06 04:08:02;;;;;;;1.40;1.30;;;;;;;3.98;100.00;99326.25;4933667;28;20152;-84
2023/12/06 04:10:29;;;;;;;4.90;2.03;;;;;;;3.98;100.00;99329.72;4948252;28;20087;-84
2023/12/06 04:12:56;;;;;;;1.95;1.75;;;;;;;4.01;100.00;99331.28;4938200;28;20125;-84
2023/12/06 04:15:23;;;;;;;3.08;1.25;;;;;;;4.00;100.00;99327.81;4938979;28;20046;-84
2023/12/06 04:17:50;;;;;;;2.20;1.80;;;;;;;4.02;100.00;99330.31;4943058;28;20097;-84
2023/12/06 04:20:17;;;;;;;4.32;1.60;;;;;;;4.03;100.00;99335.47;4954039;28;20043;-84
2023/12/06 04:22:44;;;;;;;2.10;1.52;;;;;;;4.04;100.00;99329.28;4918481;28;20131;-84
2023/12/06 04:25:14;;;;;;;3.30;1.50;;;;;;;4.05;100.00;99336.22;4936777;28;20053;-85
2023/12/06 04:27:42;;;;;;;2.08;1.65;;;;;;;4.05;100.00;99330.97;4937858;28;20070;-84
2023/12/06 04:30:11;;;;;;;2.58;1.92;;;;;;;4.05;100.00;99336.22;4937544;28;20409;-84
2023/12/06 04:32:37;;;;;;;3.63;2.08;;;;;;;4.07;100.00;99338.72;4941646;28;20055;-84
2023/12/06 04:35:05;;;;;;;2.95;1.77;;;;;;;4.07;100.00;99341.34;4932683;28;20450;-84
2023/12/06 04:37:32;;;;;;;2.10;1.70;;;;;;;4.07;100.00;99349.25;4950416;28;20042;-84
2023/12/06 04:39:58;;;;;;;4.03;2.03;;;;;;;4.06;100.00;99340.53;4924860;28;20046;-84
2023/12/06 04:42:26;;;;;;;1.80;1.70;;;;;;;4.08;100.00;99346.50;4928369;28;20049;-84
2023/12/06 04:44:53;;;;;;;2.75;1.70;;;;;;;4.08;100.00;99353.56;4931953;28;20093;-84
2023/12/06 04:47:20;;;;;;;2.47;1.60;;;;;;;4.09;100.00;99350.81;4917146;28;20094;-84
2023/12/06 04:49:48;;;;;;;4.10;2.00;;;;;;;4.09;100.00;99353.44;4950495;28;20042;-84
2023/12/06 04:52:14;;;;;;;3.05;2.40;;;;;;;4.08;100.00;99351.78;4923703;28;20069;-84
2023/12/06 04:54:41;;;;;;;2.97;2.17;;;;;;;4.09;100.00;99348.19;4920242;28;20098;-84
2023/12/06 04:57:08;;;;;;;3.15;2.20;;;;;;;4.09;100.00;99358.69;4937632;28;20078;-84
2023/12/06 05:00:28;;;;;;;;;;;;;;;;;;;;;
2023/12/06 05:03:12;;;;;;;5.20;2.72;;;;;;;4.08;100.00;99357.03;4838518;28;20066;-85
2023/12/06 05:05:39;;;;;;;4.20;2.75;;;;;;;4.10;100.00;99355.13;4930820;28;20075;-87
2023/12/06 05:08:06;;;;;;;4.97;2.60;;;;;;;4.13;100.00;99352.28;4964890;28;20046;-88
2023/12/06 05:10:33;;;;;;;5.80;2.60;;;;;;;4.11;100.00;99350.72;4930816;28;20402;-87
2023/12/06 05:13:00;;;;;;;5.35;2.80;;;;;;;4.12;100.00;99347.13;4953945;28;20045;-86
2023/12/06 05:15:27;;;;;;;5.10;2.20;;;;;;;4.16;100.00;99353.88;4933329;28;20047;-87
2023/12/06 05:17:55;;;;;;;4.43;2.47;;;;;;;4.14;100.00;99359.22;4925415;28;20074;-88
2023/12/06 05:20:23;;;;;;;6.70;3.45;;;;;;;4.13;100.00;99354.91;4920631;28;20051;-88
2023/12/06 05:22:51;;;;;;;7.60;3.30;;;;;;;4.13;100.00;99351.47;4948312;28;20047;-86
2023/12/06 05:25:18;;;;;;;4.05;2.90;;;;;;;4.13;100.00;99356.72;4939292;28;20409;-84
2023/12/06 05:27:46;;;;;;;5.57;3.60;;;;;;;4.13;100.00;99352.28;4924343;28;23411;-86
2023/12/06 05:30:20;;;;;;;5.00;3.08;;;;;;;4.13;100.00;99356.72;4904684;28;20050;-86
2023/12/06 05:33:04;;;;;;;5.13;3.60;;;;;;;4.14;100.00;99353.97;4821293;28;20835;-87
2023/12/06 05:36:32;;;;;;;5.85;3.78;;;;;;;4.14;100.00;99363.63;4790337;28;20109;-89
2023/12/06 05:39:16;;;;;;;4.95;3.50;;;;;;;4.18;100.00;99359.84;4888539;28;20050;-83
2023/12/06 05:41:43;;;;;;;8.25;4.32;;;;;;;4.18;100.00;99361.66;4950730;28;20063;-84
2023/12/06 05:44:10;;;;;;;6.40;3.53;;;;;;;4.17;100.00;99360.78;4964102;28;20062;-83
2023/12/06 05:46:37;;;;;;;6.22;3.53;;;;;;;4.22;100.00;99363.94;4964116;28;20384;-84
2023/12/06 05:49:04;;;;;;;6.38;3.25;;;;;;;4.22;100.00;99368.34;4934819;28;20061;-83
2023/12/06 05:51:31;;;;;;;6.32;3.58;;;;;;;4.22;100.00;99369.19;4941507;28;20565;-83
2023/12/06 05:53:57;;;;;;;5.45;3.58;;;;;;;4.23;100.00;99367.44;4938750;28;20076;-83
2023/12/06 05:56:24;;;;;;;6.53;4.00;;;;;;;4.25;100.00;99368.13;4950845;28;20051;-83
2023/12/06 05:58:51;;;;;;;8.82;3.78;;;;;;;4.25;100.00;99373.41;4934411;28;20125;-83
2023/12/06 06:01:18;;;;;;;5.85;3.88;;;;;;;4.24;100.00;99367.31;4936835;28;20117;-83
2023/12/06 06:03:45;;;;;;;8.13;4.55;;;;;;;4.25;100.00;99376.03;4949759;28;20049;-83
2023/12/06 06:06:14;;;;;;;6.78;3.63;;;;;;;4.27;100.00;99382.84;4935975;28;20046;-83
2023/12/06 06:08:41;;;;;;;7.80;4.03;;;;;;;4.28;100.00;99381.09;4933359;28;20123;-84
2023/12/06 06:11:08;;;;;;;6.55;4.20;;;;;;;4.28;100.00;99375.84;4935177;28;20050;-83
2023/12/06 06:13:35;;;;;;;5.93;4.63;;;;;;;4.28;100.00;99388.97;4946360;28;20051;-83
2023/12/06 06:16:01;;;;;;;6.20;4.60;;;;;;;4.28;100.00;99389.81;4936679;28;20109;-84
2023/12/06 06:18:28;;;;;;;6.05;4.22;;;;;;;4.29;100.00;99380.13;4933570;28;20047;-83
2023/12/06 06:20:55;;;;;;;8.13;5.00;;;;;;;4.29;100.00;99391.47;4950070;28;20050;-83
2023/12/06 06:23:22;;;;;;;5.28;3.63;;;;;;;4.29;100.00;99394.09;4931720;28;20047;-84
2023/12/06 06:25:52;;;;;;;5.68;4.15;;;;;;;4.28;100.00;99389.81;4954182;28;20489;-84
2023/12/06 06:28:18;;;;;;;5.68;3.80;;;;;;;4.29;100.00;99396.72;4921062;28;20035;-84
2023/12/06 06:30:45;;;;;;;9.10;5.00;;;;;;;4.29;100.00;99393.28;4936125;28;20043;-83
2023/12/06 06:33:12;;;;;;;7.10;4.80;;;;;;;4.31;100.00;99401.91;4949097;28;20047;-84
2023/12/06 06:35:39;;;;;;;9.55;5.38;;;;;;;4.31;100.00;99399.28;4916551;28;20049;-83
2023/12/06 06:38:06;;;;;;;7.30;5.10;;;;;;;4.31;100.00;99405.34;4934379;28;20509;-85
2023/12/06 06:40:32;;;;;;;10.13;4.78;;;;;;;4.34;100.00;99404.31;4950772;28;20508;-85
2023/12/06 06:42:59;;;;;;;12.48;6.28;;;;;;;4.34;100.00;99407.75;4948547;28;20546;-85
2023/12/06 06:45:26;;;;;;;11.10;6.93;;;;;;;4.30;100.00;99414.19;4919624;28;20051;-85
2023/12/06 06:47:54;;;;;;;7.70;5.13;;;;;;;4.31;100.00;99407.97;4933214;28;20051;-86
2023/12/06 06:50:21;;;;;;;11.13;5.68;;;;;;;4.32;100.00;99419.34;4948845;28;20057;-85
2023/12/06 06:52:48;;;;;;;10.93;5.55;;;;;;;4.33;100.00;99421.03;4964901;28;20046;-85
2023/12/06 06:55:15;;;;;;;10.32;5.60;;;;;;;4.34;100.00;99426.16;4956661;28;20039;-86
2023/12/06 06:57:42;;;;;;;11.27;6.35;;;;;;;4.33;100.00;99429.75;4931807;28;20050;-86
2023/12/06 07:00:13;;;;;;;12.13;5.82;;;;;;;4.34;100.00;99431.44;4947922;28;20049;-85
2023/12/06 07:02:40;;;;;;;9.75;5.45;;;;;;;4.34;100.00;99428.78;4938217;28;20069;-85
2023/12/06 07:05:12;;;;;;;12.25;6.90;;;;;;;4.35;100.00;99434.88;4923641;28;20050;-85
2023/12/06 07:07:42;;;;;;;13.63;6.73;;;;;;;4.35;100.00;99438.38;4953579;28;20150;-85
2023/12/06 07:10:12;;;;;;;11.35;5.50;;;;;;;4.37;100.00;99445.31;4963913;28;20471;-86
2023/12/06 07:12:39;;;;;;;9.63;5.65;;;;;;;4.37;100.00;99446.16;4934119;28;20098;-85
2023/12/06 07:15:14;;;;;;;11.10;6.28;;;;;;;4.38;100.00;99454.91;4948813;28;20046;-86
2023/12/06 07:17:45;;;;;;;17.98;7.15;;;;;;;4.37;100.00;99459.28;4951893;28;20057;-84
2023/12/06 07:20:12;;;;;;;9.57;6.22;;;;;;;4.40;100.00;99467.00;4938069;28;20402;-85
2023/12/06 07:22:39;;;;;;;18.15;7.72;;;;;;;4.40;100.00;99471.38;4949081;28;20953;-85
2023/12/06 07:25:06;;;;;;;28.17;11.25;;;;;;;4.41;100.00;99475.72;4937064;28;20054;-85
2023/12/06 07:27:33;;;;;;;22.77;9.85;;;;;;;4.42;100.00;99477.38;4947881;28;20042;-85
2023/12/06 07:30:00;;;;;;;16.70;8.13;;;;;;;4.43;100.00;99479.91;4936462;28;20098;-85
2023/12/06 07:32:27;;;;;;;15.35;9.02;;;;;;;4.42;100.00;99478.22;4935987;28;20406;-86
2023/12/06 07:35:01;;;;;;;12.57;7.05;;;;;;;4.42;100.00;99480.84;4948699;28;20051;-86
2023/12/06 07:37:29;;;;;;;14.63;7.00;;;;;;;4.43;100.00;99482.53;4917153;28;20046;-85
2023/12/06 07:39:56;;;;;;;16.30;7.63;;;;;;;4.43;100.00;99479.91;4964158;28;20047;-85
2023/12/06 07:42:22;;;;;;;15.80;7.35;;;;;;;4.42;100.00;99491.34;4939089;28;20499;-86
2023/12/06 07:44:49;;;;;;;12.57;6.40;;;;;;;4.44;100.00;99491.25;4951809;28;20039;-85
2023/12/06 07:47:16;;;;;;;12.18;7.22;;;;;;;4.44;100.00;99496.53;4952461;28;20127;-84
2023/12/06 07:49:43;;;;;;;15.50;7.82;;;;;;;4.44;100.00;99494.72;4957262;28;20051;-85
2023/12/06 07:52:10;;;;;;;15.05;8.00;;;;;;;4.44;100.00;99496.53;4957392;28;20043;-86
2023/12/06 07:54:37;;;;;;;17.15;7.97;;;;;;;4.45;100.00;99499.06;4949037;28;20055;-84
2023/12/06 07:57:04;;;;;;;15.25;6.57;;;;;;;4.45;100.00;99501.69;4969891;28;20486;-85
2023/12/06 07:59:30;;;;;;;14.15;7.63;;;;;;;4.45;100.00;99506.06;4935746;28;20438;-84
2023/12/06 08:01:57;;;;;;;16.42;7.72;;;;;;;4.46;100.00;99513.88;4929929;28;20043;-86
2023/12/06 08:04:24;;;;;;;18.88;8.95;;;;;;;4.46;100.00;99511.25;4944930;28;20748;-85
2023/12/06 08:06:52;;;;;;;16.73;8.20;;;;;;;4.46;100.00;99521.75;4953356;28;20442;-85
2023/12/06 08:09:18;;;;;;;10.63;6.25;;;;;;;4.47;100.00;99528.69;4936695;28;20053;-85
2023/12/06 08:11:46;;;;;;;12.15;6.88;;;;;;;4.48;100.00;99532.19;4952041;28;20051;-85
2023/12/06 08:14:14;;;;;;;15.40;7.57;;;;;;;4.46;100.00;99531.44;4953247;28;20051;-85
2023/12/06 08:16:40;;;;;;;12.18;6.28;;;;;;;4.46;100.00;99537.53;4957429;28;20043;-85
2023/12/06 08:19:08;;;;;;;13.80;7.03;;;;;;;4.45;100.00;99543.75;4969141;28;20054;-85
2023/12/06 08:21:36;;;;;;;13.95;6.47;;;;;;;4.44;100.00;99544.69;4954261;28;20126;-85
2023/12/06 08:24:05;;;;;;;15.60;7.75;;;;;;;4.46;100.00;99555.94;4965862;28;20047;-83
2023/12/06 08:26:33;;;;;;;17.23;9.27;;;;;;;4.47;100.00;99557.59;4956476;28;20050;-85
2023/12/06 08:29:00;;;;;;;17.40;9.25;;;;;;;4.45;100.00;99567.41;4941467;28;20383;-85
2023/12/06 08:31:28;;;;;;;21.73;10.25;;;;;;;4.44;100.00;99573.59;4956900;28;20078;-85
2023/12/06 08:33:55;;;;;;;16.88;8.40;;;;;;;4.44;100.00;99576.22;4951505;28;20054;-85
2023/12/06 08:36:22;;;;;;;18.90;9.73;;;;;;;4.44;100.00;99585.91;4925514;28;20047;-85
2023/12/06 08:38:49;;;;;;;20.35;10.90;;;;;;;4.44;100.00;99593.78;4950717;28;20512;-84
2023/12/06 08:41:15;;;;;;;17.92;9.32;;;;;;;4.44;100.00;99591.16;4921239;28;20101;-84
2023/12/06 08:43:43;;;;;;;22.48;10.48;;;;;;;4.39;100.00;99601.97;4965564;28;20034;-84
2023/12/06 08:46:10;;;;;;;23.45;10.57;;;;;;;4.39;100.00;99601.97;4952565;28;20039;-85
2023/12/06 08:48:37;;;;;;;22.83;9.80;;;;;;;4.40;100.00;99608.94;4949362;28;20418;-85
2023/12/06 08:51:04;;;;;;;26.25;11.63;;;;;;;4.39;100.00;99609.88;4954382;28;20049;-85
2023/12/06 08:53:30;;;;;;;24.17;11.20;;;;;;;4.40;100.00;99618.59;4954611;28;20126;-84
2023/12/06 08:55:57;;;;;;;21.85;10.98;;;;;;;4.38;100.00;99615.25;4935592;28;20035;-85
2023/12/06 08:58:24;;;;;;;24.25;11.25;;;;;;;4.36;100.00;99623.22;4966150;28;20379;-84
2023/12/06 09:00:51;;;;;;;26.05;11.10;;;;;;;4.37;100.00;99626.69;4951759;28;20046;-84
2023/12/06 09:03:18;;;;;;;20.58;9.88;;;;;;;4.35;100.00;99638.16;4920184;28;20050;-84
2023/12/06 09:05:45;;;;;;;24.13;10.70;;;;;;;4.35;100.00;99635.53;4957056;28;20070;-84
2023/12/06 09:08:12;;;;;;;24.70;11.48;;;;;;;4.35;100.00;99637.28;4936407;28;20043;-84
2023/12/06 09:10:39;;;;;;;23.98;10.50;;;;;;;4.35;100.00;99642.56;4941089;28;20047;-85
2023/12/06 09:13:06;;;;;;;23.58;11.82;;;;;;;4.35;100.00;99645.19;4936772;28;20106;-85
2023/12/06 09:15:33;;;;;;;23.95;11.63;;;;;;;4.36;100.00;99649.50;4950998;28;20375;-84
2023/12/06 09:18:00;;;;;;;25.73;12.18;;;;;;;4.35;100.00;99648.66;4921631;28;20050;-85
2023/12/06 09:20:26;;;;;;;22.50;10.68;;;;;;;4.33;100.00;99654.97;4939171;28;20051;-86
2023/12/06 09:22:53;;;;;;;23.23;10.45;;;;;;;4.35;100.00;99660.94;4936521;28;20439;-85
2023/12/06 09:25:20;;;;;;;22.20;10.85;;;;;;;4.36;100.00;99660.03;4964778;28;20046;-85
2023/12/06 09:27:47;;;;;;;22.52;11.32;;;;;;;4.34;100.00;99661.91;4949144;28;20531;-85
2023/12/06 09:30:16;;;;;;;23.80;11.43;;;;;;;4.35;100.00;99661.81;4958105;28;20051;-84
2023/12/06 09:32:43;;;;;;;26.92;12.02;;;;;;;4.35;100.00;99664.44;4949711;28;20384;-86
2023/12/06 09:35:10;;;;;;;26.02;12.02;;;;;;;4.38;100.00;99670.44;4935392;28;20050;-85
2023/12/06 09:37:37;;;;;;;23.17;10.40;;;;;;;4.38;100.00;99665.19;4950184;28;20081;-84
2023/12/06 09:40:05;;;;;;;23.35;10.80;;;;;;;4.39;100.00;99680.84;4950820;28;20063;-85
2023/12/06 09:42:33;;;;;;;21.50;11.15;;;;;;;4.41;100.00;99678.13;4966579;28;20057;-85
2023/12/06 09:45:01;;;;;;;26.10;11.45;;;;;;;4.39;100.00;99680.84;4950485;28;20043;-84
2023/12/06 09:47:29;;;;;;;23.50;11.88;;;;;;;4.40;100.00;99682.56;4956748;28;20039;-85
2023/12/06 09:49:57;;;;;;;26.20;12.77;;;;;;;4.39;100.00;99678.22;4966403;28;20553;-85
2023/12/06 09:52:24;;;;;;;23.40;11.70;;;;;;;4.40;100.00;99682.56;4938481;28;20097;-85
2023/12/06 09:54:51;;;;;;;28.27;12.15;;;;;;;4.39;100.00;99693.16;4949455;28;20077;-84
2023/12/06 09:57:18;;;;;;;25.25;13.07;;;;;;;4.39;100.00;99685.28;4949831;28;20039;-85
2023/12/06 09:59:45;;;;;;;21.30;11.70;;;;;;;4.40;100.00;99686.94;4948716;28;20051;-85
2023/12/06 10:02:12;;;;;;;23.25;12.02;;;;;;;4.40;100.00;99692.19;4950399;28;20122;-84
2023/12/06 10:04:39;;;;;;;25.38;11.45;;;;;;;4.41;100.00;99689.47;4950074;28;20125;-85
2023/12/06 10:07:07;;;;;;;22.73;12.73;;;;;;;4.40;100.00;99698.31;4954958;28;20046;-85
2023/12/06 10:09:34;;;;;;;25.23;12.73;;;;;;;4.40;100.00;99698.31;4950408;28;20056;-85
2023/12/06 10:12:10;;;;;;;25.05;12.85;;;;;;;4.37;100.00;99695.88;4950042;28;20098;-85
2023/12/06 10:14:37;;;;;;;23.17;12.07;;;;;;;4.43;100.00;99700.75;4948396;28;20085;-86
2023/12/06 10:17:04;;;;;;;23.85;12.82;;;;;;;4.43;100.00;99694.66;4951139;28;20077;-86
2023/12/06 10:19:31;;;;;;;24.63;12.93;;;;;;;4.44;100.00;99696.34;4948932;28;20130;-85
2023/12/06 10:21:59;;;;;;;23.05;11.65;;;;;;;4.43;100.00;99698.13;4949812;28;20057;-85
2023/12/06 10:24:27;;;;;;;25.23;12.27;;;;;;;4.45;100.00;99698.00;4935189;28;20062;-85
2023/12/06 10:27:05;;;;;;;21.40;11.00;;;;;;;4.43;100.00;99706.00;4921780;28;20051;-86
2023/12/06 10:29:32;;;;;;;24.55;11.40;;;;;;;4.45;100.00;99701.50;4932128;28;20081;-85
2023/12/06 10:31:59;;;;;;;20.00;11.13;;;;;;;4.44;100.00;99707.69;4948877;28;20050;-84
2023/12/06 10:34:31;;;;;;;25.90;12.25;;;;;;;4.46;100.00;99708.44;4934181;28;20042;-85
2023/12/06 10:36:59;;;;;;;20.85;10.52;;;;;;;4.46;100.00;99716.31;4952014;28;20070;-85
2023/12/06 10:39:26;;;;;;;22.17;11.48;;;;;;;4.46;100.00;99718.94;4931557;28;20046;-85
2023/12/06 10:41:55;;;;;;;22.50;11.38;;;;;;;4.45;100.00;99713.78;4946623;28;20050;-85
2023/12/06 10:44:22;;;;;;;22.38;10.93;;;;;;;4.46;100.00;99724.22;4951109;28;20074;-85
2023/12/06 10:46:48;;;;;;;21.13;11.00;;;;;;;4.46;100.00;99718.13;4931919;28;20049;-85
2023/12/06 10:49:32;;;;;;;21.55;10.63;;;;;;;4.46;100.00;99726.00;4919000;28;20483;-85
2023/12/06 10:51:59;;;;;;;21.73;11.35;;;;;;;4.47;100.00;99728.50;4965227;28;20105;-85
2023/12/06 10:54:27;;;;;;;22.10;11.13;;;;;;;4.45;100.00;99727.78;4956190;28;20046;-86
2023/12/06 10:56:56;;;;;;;19.08;10.02;;;;;;;4.46;100.00;99731.25;4954011;28;20050;-85
2023/12/06 10:59:25;;;;;;;22.15;11.38;;;;;;;4.46;100.00;99728.63;4934289;28;20078;-84
2023/12/06 11:01:55;;;;;;;21.33;11.63;;;;;;;4.46;100.00;99729.47;4964251;28;20051;-85
2023/12/06 11:04:30;;;;;;;21.65;10.52;;;;;;;4.46;100.00;99729.47;4919122;28;20121;-86
2023/12/06 11:07:10;;;;;;;21.67;11.05;;;;;;;4.43;100.00;99726.19;4932740;28;20382;-85
2023/12/06 11:09:44;;;;;;;22.40;10.45;;;;;;;4.46;100.00;99734.72;4948915;28;20046;-85
2023/12/06 11:12:38;;;;;;;24.08;11.98;;;;;;;4.45;100.00;99733.06;4949230;28;20049;-85
2023/12/06 11:15:11;;;;;;;;;;;;;;;4.39;100.00;99735.22;4917010;28;20051;-86
2023/12/06 11:18:02;;;;;;;21.95;11.13;;;;;;;4.42;100.00;99735.00;4964230;28;19926;-85
2023/12/06 11:20:30;;;;;;;23.60;11.05;;;;;;;4.45;100.00;99745.31;4949668;28;20035;-85
2023/12/06 11:22:57;;;;;;;24.92;11.82;;;;;;;4.44;100.00;99744.50;4950839;28;20061;-84
2023/12/06 11:25:27;;;;;;;22.90;11.82;;;;;;;4.46;100.00;99741.78;4965494;28;20042;-85
2023/12/06 11:27:55;;;;;;;21.92;11.07;;;;;;;4.47;100.00;99733.75;4955325;28;20073;-86
2023/12/06 11:30:22;;;;;;;23.63;10.70;;;;;;;4.47;100.00;99746.91;4949054;28;20055;-86
2023/12/06 11:32:57;;;;;;;22.98;11.25;;;;;;;4.46;100.00;99734.72;4935931;28;20042;-84